sensor_id;sensor_type;location;lat;lon;timestamp;P1;durP1;ratioP1;P2;durP2;ratioP2
50683;SDS011;36654;45.042;38.994;2023-06-10T00:01:41;19.25;;;5.25;;
50683;SDS011;36654;45.042;38.994;2023-06-10T00:04:08;19.05;;;5.13;;
50683;SDS011;36654;45.042;38.994;2023-06-10T00:06:34;21.00;;;4.30;;
50683;SDS011;36654;45.042;38.994;2023-06-10T00:09:05;18.35;;;5.68;;
50683;SDS011;36654;45.042;38.994;2023-06-10T00:11:35;18.27;;;4.53;;
50683;SDS011;36654;45.042;38.994;2023-06-10T00:14:01;14.70;;;4.50;;
50683;SDS011;36654;45.042;38.994;2023-06-10T00:16:26;21.27;;;5.07;;
50683;SDS011;36654;45.042;38.994;2023-06-10T00:18:52;18.58;;;4.72;;
50683;SDS011;36654;45.042;38.994;2023-06-10T00:21:21;21.08;;;5.63;;
50683;SDS011;36654;45.042;38.994;2023-06-10T00:23:47;21.98;;;5.05;;
50683;SDS011;36654;45.042;38.994;2023-06-10T00:26:13;22.10;;;5.90;;
50683;SDS011;36654;45.042;38.994;2023-06-10T00:28:39;18.35;;;4.82;;
50683;SDS011;36654;45.042;38.994;2023-06-10T00:31:05;20.80;;;5.50;;
50683;SDS011;36654;45.042;38.994;2023-06-10T00:33:30;16.73;;;4.60;;
50683;SDS011;36654;45.042;38.994;2023-06-10T00:35:56;22.55;;;5.03;;
50683;SDS011;36654;45.042;38.994;2023-06-10T00:38:22;18.40;;;4.50;;
50683;SDS011;36654;45.042;38.994;2023-06-10T00:40:47;19.33;;;5.15;;
50683;SDS011;36654;45.042;38.994;2023-06-10T00:43:13;24.70;;;5.25;;
50683;SDS011;36654;45.042;38.994;2023-06-10T00:45:38;17.45;;;4.50;;
50683;SDS011;36654;45.042;38.994;2023-06-10T00:48:04;21.17;;;4.55;;
50683;SDS011;36654;45.042;38.994;2023-06-10T00:50:30;15.57;;;5.65;;
50683;SDS011;36654;45.042;38.994;2023-06-10T00:52:56;16.67;;;4.32;;
50683;SDS011;36654;45.042;38.994;2023-06-10T00:55:24;24.80;;;5.07;;
50683;SDS011;36654;45.042;38.994;2023-06-10T00:57:52;22.67;;;4.88;;
50683;SDS011;36654;45.042;38.994;2023-06-10T01:00:18;25.65;;;4.72;;
50683;SDS011;36654;45.042;38.994;2023-06-10T01:02:44;25.98;;;5.35;;
50683;SDS011;36654;45.042;38.994;2023-06-10T01:05:10;20.48;;;4.28;;
50683;SDS011;36654;45.042;38.994;2023-06-10T01:07:55;18.67;;;5.35;;
50683;SDS011;36654;45.042;38.994;2023-06-10T01:10:36;15.90;;;4.85;;
50683;SDS011;36654;45.042;38.994;2023-06-10T01:13:22;18.35;;;4.78;;
50683;SDS011;36654;45.042;38.994;2023-06-10T01:15:54;15.00;;;4.55;;
50683;SDS011;36654;45.042;38.994;2023-06-10T01:18:21;26.42;;;5.18;;
50683;SDS011;36654;45.042;38.994;2023-06-10T01:20:47;18.60;;;5.65;;
50683;SDS011;36654;45.042;38.994;2023-06-10T01:23:14;24.23;;;5.35;;
50683;SDS011;36654;45.042;38.994;2023-06-10T01:25:41;23.52;;;5.15;;
50683;SDS011;36654;45.042;38.994;2023-06-10T01:28:14;18.45;;;5.00;;
50683;SDS011;36654;45.042;38.994;2023-06-10T01:33:45;23.98;;;4.75;;
50683;SDS011;36654;45.042;38.994;2023-06-10T01:36:12;18.60;;;4.95;;
50683;SDS011;36654;45.042;38.994;2023-06-10T01:38:42;15.82;;;4.55;;
50683;SDS011;36654;45.042;38.994;2023-06-10T01:41:12;20.98;;;4.60;;
50683;SDS011;36654;45.042;38.994;2023-06-10T01:43:39;26.42;;;5.70;;
50683;SDS011;36654;45.042;38.994;2023-06-10T01:46:05;17.65;;;5.13;;
50683;SDS011;36654;45.042;38.994;2023-06-10T01:48:31;14.38;;;4.38;;
50683;SDS011;36654;45.042;38.994;2023-06-10T01:50:58;21.10;;;4.53;;
50683;SDS011;36654;45.042;38.994;2023-06-10T01:53:24;15.57;;;5.05;;
50683;SDS011;36654;45.042;38.994;2023-06-10T01:55:50;26.30;;;5.70;;
50683;SDS011;36654;45.042;38.994;2023-06-10T01:58:15;24.40;;;5.40;;
50683;SDS011;36654;45.042;38.994;2023-06-10T02:00:41;11.02;;;4.15;;
50683;SDS011;36654;45.042;38.994;2023-06-10T02:03:07;17.30;;;4.95;;
50683;SDS011;36654;45.042;38.994;2023-06-10T02:05:32;17.42;;;5.05;;
50683;SDS011;36654;45.042;38.994;2023-06-10T02:07:58;9.80;;;4.97;;
50683;SDS011;36654;45.042;38.994;2023-06-10T02:10:24;15.27;;;4.32;;
50683;SDS011;36654;45.042;38.994;2023-06-10T02:12:50;20.40;;;4.55;;
50683;SDS011;36654;45.042;38.994;2023-06-10T02:15:15;25.67;;;5.00;;
50683;SDS011;36654;45.042;38.994;2023-06-10T02:17:41;17.65;;;5.30;;
50683;SDS011;36654;45.042;38.994;2023-06-10T02:20:07;18.33;;;5.85;;
50683;SDS011;36654;45.042;38.994;2023-06-10T02:22:36;23.25;;;5.68;;
50683;SDS011;36654;45.042;38.994;2023-06-10T02:25:02;23.08;;;6.00;;
50683;SDS011;36654;45.042;38.994;2023-06-10T02:27:28;22.10;;;4.97;;
50683;SDS011;36654;45.042;38.994;2023-06-10T02:29:55;25.15;;;5.32;;
50683;SDS011;36654;45.042;38.994;2023-06-10T02:32:21;23.45;;;4.80;;
50683;SDS011;36654;45.042;38.994;2023-06-10T02:34:47;15.10;;;5.40;;
50683;SDS011;36654;45.042;38.994;2023-06-10T02:37:14;20.35;;;5.55;;
50683;SDS011;36654;45.042;38.994;2023-06-10T02:39:40;25.90;;;5.45;;
50683;SDS011;36654;45.042;38.994;2023-06-10T02:42:06;17.48;;;5.40;;
50683;SDS011;36654;45.042;38.994;2023-06-10T02:44:32;21.17;;;5.20;;
50683;SDS011;36654;45.042;38.994;2023-06-10T02:46:58;17.25;;;4.40;;
50683;SDS011;36654;45.042;38.994;2023-06-10T02:49:23;17.33;;;4.90;;
50683;SDS011;36654;45.042;38.994;2023-06-10T02:51:50;21.42;;;6.10;;
50683;SDS011;36654;45.042;38.994;2023-06-10T02:54:18;18.98;;;4.32;;
50683;SDS011;36654;45.042;38.994;2023-06-10T02:56:45;13.95;;;5.63;;
50683;SDS011;36654;45.042;38.994;2023-06-10T02:59:11;16.30;;;5.03;;
50683;SDS011;36654;45.042;38.994;2023-06-10T03:01:36;17.08;;;5.82;;
50683;SDS011;36654;45.042;38.994;2023-06-10T03:04:05;25.40;;;5.22;;
50683;SDS011;36654;45.042;38.994;2023-06-10T03:06:32;12.70;;;5.18;;
50683;SDS011;36654;45.042;38.994;2023-06-10T03:09:03;16.05;;;5.38;;
50683;SDS011;36654;45.042;38.994;2023-06-10T03:11:35;22.30;;;5.20;;
50683;SDS011;36654;45.042;38.994;2023-06-10T03:14:01;22.33;;;5.07;;
50683;SDS011;36654;45.042;38.994;2023-06-10T03:16:26;21.98;;;4.95;;
50683;SDS011;36654;45.042;38.994;2023-06-10T03:18:52;19.90;;;5.55;;
50683;SDS011;36654;45.042;38.994;2023-06-10T03:21:18;13.10;;;5.22;;
50683;SDS011;36654;45.042;38.994;2023-06-10T03:23:43;16.92;;;5.10;;
50683;SDS011;36654;45.042;38.994;2023-06-10T03:26:10;15.82;;;4.72;;
50683;SDS011;36654;45.042;38.994;2023-06-10T03:28:37;13.07;;;4.88;;
50683;SDS011;36654;45.042;38.994;2023-06-10T03:31:03;12.38;;;4.60;;
50683;SDS011;36654;45.042;38.994;2023-06-10T03:33:28;12.75;;;5.32;;
50683;SDS011;36654;45.042;38.994;2023-06-10T03:35:55;19.20;;;4.22;;
50683;SDS011;36654;45.042;38.994;2023-06-10T03:38:20;14.77;;;4.32;;
50683;SDS011;36654;45.042;38.994;2023-06-10T03:40:46;19.13;;;4.93;;
50683;SDS011;36654;45.042;38.994;2023-06-10T03:43:12;19.88;;;5.13;;
50683;SDS011;36654;45.042;38.994;2023-06-10T03:45:38;21.33;;;5.05;;
50683;SDS011;36654;45.042;38.994;2023-06-10T03:48:03;17.40;;;4.80;;
50683;SDS011;36654;45.042;38.994;2023-06-10T03:50:29;18.17;;;5.90;;
50683;SDS011;36654;45.042;38.994;2023-06-10T03:52:55;18.65;;;5.35;;
50683;SDS011;36654;45.042;38.994;2023-06-10T03:55:21;17.60;;;5.03;;
50683;SDS011;36654;45.042;38.994;2023-06-10T03:57:49;18.45;;;5.03;;
50683;SDS011;36654;45.042;38.994;2023-06-10T04:00:15;16.73;;;5.13;;
50683;SDS011;36654;45.042;38.994;2023-06-10T04:02:42;15.18;;;5.53;;
50683;SDS011;36654;45.042;38.994;2023-06-10T04:05:12;18.58;;;5.20;;
50683;SDS011;36654;45.042;38.994;2023-06-10T04:07:39;20.00;;;5.50;;
50683;SDS011;36654;45.042;38.994;2023-06-10T04:10:06;18.45;;;4.25;;
50683;SDS011;36654;45.042;38.994;2023-06-10T04:12:32;15.88;;;4.60;;
50683;SDS011;36654;45.042;38.994;2023-06-10T04:14:58;16.30;;;5.28;;
50683;SDS011;36654;45.042;38.994;2023-06-10T04:17:24;14.93;;;4.35;;
50683;SDS011;36654;45.042;38.994;2023-06-10T04:19:50;16.45;;;4.90;;
50683;SDS011;36654;45.042;38.994;2023-06-10T04:22:16;19.35;;;4.72;;
50683;SDS011;36654;45.042;38.994;2023-06-10T04:24:43;17.35;;;5.15;;
50683;SDS011;36654;45.042;38.994;2023-06-10T04:27:08;18.23;;;5.45;;
50683;SDS011;36654;45.042;38.994;2023-06-10T04:29:35;21.10;;;5.68;;
50683;SDS011;36654;45.042;38.994;2023-06-10T04:32:01;18.33;;;5.05;;
50683;SDS011;36654;45.042;38.994;2023-06-10T04:34:27;15.23;;;5.28;;
50683;SDS011;36654;45.042;38.994;2023-06-10T04:36:52;19.52;;;5.28;;
50683;SDS011;36654;45.042;38.994;2023-06-10T04:39:18;19.85;;;5.85;;
50683;SDS011;36654;45.042;38.994;2023-06-10T04:41:45;17.20;;;4.88;;
50683;SDS011;36654;45.042;38.994;2023-06-10T04:44:11;19.83;;;6.72;;
50683;SDS011;36654;45.042;38.994;2023-06-10T04:46:37;18.65;;;6.53;;
50683;SDS011;36654;45.042;38.994;2023-06-10T04:49:03;16.70;;;4.90;;
50683;SDS011;36654;45.042;38.994;2023-06-10T04:51:30;19.08;;;4.80;;
50683;SDS011;36654;45.042;38.994;2023-06-10T04:53:57;21.02;;;5.30;;
50683;SDS011;36654;45.042;38.994;2023-06-10T04:56:23;15.60;;;4.50;;
50683;SDS011;36654;45.042;38.994;2023-06-10T04:58:49;12.73;;;5.43;;
50683;SDS011;36654;45.042;38.994;2023-06-10T05:01:15;16.35;;;5.40;;
50683;SDS011;36654;45.042;38.994;2023-06-10T05:03:40;14.90;;;4.72;;
50683;SDS011;36654;45.042;38.994;2023-06-10T05:06:06;20.10;;;5.68;;
50683;SDS011;36654;45.042;38.994;2023-06-10T05:08:32;16.95;;;6.03;;
50683;SDS011;36654;45.042;38.994;2023-06-10T05:10:59;12.70;;;4.93;;
50683;SDS011;36654;45.042;38.994;2023-06-10T05:13:24;15.10;;;5.63;;
50683;SDS011;36654;45.042;38.994;2023-06-10T05:15:50;12.40;;;4.72;;
50683;SDS011;36654;45.042;38.994;2023-06-10T05:18:15;18.63;;;5.20;;
50683;SDS011;36654;45.042;38.994;2023-06-10T05:20:41;16.30;;;5.40;;
50683;SDS011;36654;45.042;38.994;2023-06-10T05:23:07;23.40;;;5.38;;
50683;SDS011;36654;45.042;38.994;2023-06-10T05:25:33;20.58;;;5.35;;
50683;SDS011;36654;45.042;38.994;2023-06-10T05:27:58;18.73;;;5.50;;
50683;SDS011;36654;45.042;38.994;2023-06-10T05:30:24;19.23;;;5.00;;
50683;SDS011;36654;45.042;38.994;2023-06-10T05:32:51;18.45;;;5.15;;
50683;SDS011;36654;45.042;38.994;2023-06-10T05:35:18;20.60;;;5.40;;
50683;SDS011;36654;45.042;38.994;2023-06-10T05:37:43;22.27;;;5.30;;
50683;SDS011;36654;45.042;38.994;2023-06-10T05:40:09;23.40;;;5.57;;
50683;SDS011;36654;45.042;38.994;2023-06-10T05:42:35;20.92;;;5.63;;
50683;SDS011;36654;45.042;38.994;2023-06-10T05:45:01;18.05;;;5.97;;
50683;SDS011;36654;45.042;38.994;2023-06-10T05:47:27;16.77;;;5.32;;
50683;SDS011;36654;45.042;38.994;2023-06-10T05:49:53;16.27;;;5.68;;
50683;SDS011;36654;45.042;38.994;2023-06-10T05:52:19;21.67;;;5.20;;
50683;SDS011;36654;45.042;38.994;2023-06-10T05:54:45;20.90;;;6.20;;
50683;SDS011;36654;45.042;38.994;2023-06-10T05:57:10;19.27;;;5.95;;
50683;SDS011;36654;45.042;38.994;2023-06-10T05:59:36;16.10;;;5.75;;
50683;SDS011;36654;45.042;38.994;2023-06-10T06:02:02;17.25;;;5.22;;
50683;SDS011;36654;45.042;38.994;2023-06-10T06:04:28;21.13;;;4.72;;
50683;SDS011;36654;45.042;38.994;2023-06-10T06:06:53;14.20;;;4.80;;
50683;SDS011;36654;45.042;38.994;2023-06-10T06:09:19;26.00;;;6.72;;
50683;SDS011;36654;45.042;38.994;2023-06-10T06:11:45;14.73;;;5.90;;
50683;SDS011;36654;45.042;38.994;2023-06-10T06:14:10;14.65;;;5.68;;
50683;SDS011;36654;45.042;38.994;2023-06-10T06:16:36;25.77;;;6.30;;
50683;SDS011;36654;45.042;38.994;2023-06-10T06:19:01;19.80;;;6.20;;
50683;SDS011;36654;45.042;38.994;2023-06-10T06:21:27;11.32;;;4.93;;
50683;SDS011;36654;45.042;38.994;2023-06-10T06:23:53;20.15;;;5.97;;
50683;SDS011;36654;45.042;38.994;2023-06-10T06:26:18;14.73;;;4.93;;
50683;SDS011;36654;45.042;38.994;2023-06-10T06:28:44;22.00;;;6.70;;
50683;SDS011;36654;45.042;38.994;2023-06-10T06:31:09;25.73;;;6.63;;
50683;SDS011;36654;45.042;38.994;2023-06-10T06:33:35;21.35;;;5.63;;
50683;SDS011;36654;45.042;38.994;2023-06-10T06:36:01;18.63;;;5.05;;
50683;SDS011;36654;45.042;38.994;2023-06-10T06:38:27;14.88;;;5.30;;
50683;SDS011;36654;45.042;38.994;2023-06-10T06:40:52;17.65;;;6.05;;
50683;SDS011;36654;45.042;38.994;2023-06-10T06:43:19;18.50;;;5.80;;
50683;SDS011;36654;45.042;38.994;2023-06-10T06:45:45;21.85;;;6.22;;
50683;SDS011;36654;45.042;38.994;2023-06-10T06:48:11;20.10;;;5.97;;
50683;SDS011;36654;45.042;38.994;2023-06-10T06:50:37;13.95;;;5.72;;
50683;SDS011;36654;45.042;38.994;2023-06-10T06:53:03;21.83;;;6.20;;
50683;SDS011;36654;45.042;38.994;2023-06-10T06:55:29;15.23;;;5.22;;
50683;SDS011;36654;45.042;38.994;2023-06-10T06:57:55;24.85;;;5.95;;
50683;SDS011;36654;45.042;38.994;2023-06-10T07:00:21;17.17;;;5.55;;
50683;SDS011;36654;45.042;38.994;2023-06-10T07:02:47;16.90;;;5.80;;
50683;SDS011;36654;45.042;38.994;2023-06-10T07:05:12;24.10;;;5.15;;
50683;SDS011;36654;45.042;38.994;2023-06-10T07:07:38;17.38;;;5.70;;
50683;SDS011;36654;45.042;38.994;2023-06-10T07:10:04;13.48;;;5.57;;
50683;SDS011;36654;45.042;38.994;2023-06-10T07:12:30;16.85;;;5.43;;
50683;SDS011;36654;45.042;38.994;2023-06-10T07:14:55;17.27;;;5.47;;
50683;SDS011;36654;45.042;38.994;2023-06-10T07:17:21;18.58;;;5.80;;
50683;SDS011;36654;45.042;38.994;2023-06-10T07:19:47;20.65;;;5.65;;
50683;SDS011;36654;45.042;38.994;2023-06-10T07:22:12;13.90;;;5.35;;
50683;SDS011;36654;45.042;38.994;2023-06-10T07:24:39;18.23;;;5.78;;
50683;SDS011;36654;45.042;38.994;2023-06-10T07:27:04;18.13;;;5.45;;
50683;SDS011;36654;45.042;38.994;2023-06-10T07:29:30;15.73;;;6.30;;
50683;SDS011;36654;45.042;38.994;2023-06-10T07:31:56;18.73;;;5.88;;
50683;SDS011;36654;45.042;38.994;2023-06-10T07:34:22;17.27;;;5.57;;
50683;SDS011;36654;45.042;38.994;2023-06-10T07:36:47;12.68;;;5.20;;
50683;SDS011;36654;45.042;38.994;2023-06-10T07:39:13;15.30;;;6.38;;
50683;SDS011;36654;45.042;38.994;2023-06-10T07:41:39;19.05;;;5.97;;
50683;SDS011;36654;45.042;38.994;2023-06-10T07:44:04;13.60;;;6.70;;
50683;SDS011;36654;45.042;38.994;2023-06-10T07:46:30;16.80;;;5.88;;
50683;SDS011;36654;45.042;38.994;2023-06-10T07:48:55;15.65;;;6.80;;
50683;SDS011;36654;45.042;38.994;2023-06-10T07:51:21;19.67;;;6.82;;
50683;SDS011;36654;45.042;38.994;2023-06-10T07:53:47;16.92;;;6.60;;
50683;SDS011;36654;45.042;38.994;2023-06-10T07:56:13;20.55;;;6.75;;
50683;SDS011;36654;45.042;38.994;2023-06-10T07:58:38;22.58;;;6.93;;
50683;SDS011;36654;45.042;38.994;2023-06-10T08:01:04;16.42;;;6.60;;
50683;SDS011;36654;45.042;38.994;2023-06-10T08:03:30;18.98;;;7.65;;
50683;SDS011;36654;45.042;38.994;2023-06-10T08:05:56;20.55;;;7.18;;
50683;SDS011;36654;45.042;38.994;2023-06-10T08:08:21;11.82;;;6.00;;
50683;SDS011;36654;45.042;38.994;2023-06-10T08:10:47;17.98;;;7.00;;
50683;SDS011;36654;45.042;38.994;2023-06-10T08:13:14;19.48;;;6.97;;
50683;SDS011;36654;45.042;38.994;2023-06-10T08:15:40;19.63;;;7.10;;
50683;SDS011;36654;45.042;38.994;2023-06-10T08:18:05;20.77;;;6.43;;
50683;SDS011;36654;45.042;38.994;2023-06-10T08:20:31;17.90;;;6.45;;
50683;SDS011;36654;45.042;38.994;2023-06-10T08:22:57;16.17;;;7.25;;
50683;SDS011;36654;45.042;38.994;2023-06-10T08:25:23;13.48;;;7.00;;
50683;SDS011;36654;45.042;38.994;2023-06-10T08:27:48;17.65;;;7.22;;
50683;SDS011;36654;45.042;38.994;2023-06-10T08:30:15;17.98;;;7.32;;
50683;SDS011;36654;45.042;38.994;2023-06-10T08:32:41;17.23;;;6.75;;
50683;SDS011;36654;45.042;38.994;2023-06-10T08:35:07;27.73;;;7.50;;
50683;SDS011;36654;45.042;38.994;2023-06-10T08:37:33;18.88;;;6.80;;
50683;SDS011;36654;45.042;38.994;2023-06-10T08:39:59;14.40;;;6.05;;
50683;SDS011;36654;45.042;38.994;2023-06-10T08:42:27;16.50;;;6.03;;
50683;SDS011;36654;45.042;38.994;2023-06-10T08:44:58;17.25;;;7.07;;
50683;SDS011;36654;45.042;38.994;2023-06-10T08:47:28;17.02;;;7.05;;
50683;SDS011;36654;45.042;38.994;2023-06-10T08:50:01;15.02;;;5.72;;
50683;SDS011;36654;45.042;38.994;2023-06-10T08:52:35;13.75;;;6.65;;
50683;SDS011;36654;45.042;38.994;2023-06-10T08:55:15;16.85;;;6.55;;
50683;SDS011;36654;45.042;38.994;2023-06-10T08:57:51;13.70;;;6.50;;
50683;SDS011;36654;45.042;38.994;2023-06-10T09:00:17;21.63;;;6.50;;
50683;SDS011;36654;45.042;38.994;2023-06-10T09:02:43;18.83;;;6.95;;
50683;SDS011;36654;45.042;38.994;2023-06-10T09:05:10;17.80;;;6.40;;
50683;SDS011;36654;45.042;38.994;2023-06-10T09:07:35;15.43;;;6.63;;
50683;SDS011;36654;45.042;38.994;2023-06-10T09:10:02;15.45;;;6.57;;
50683;SDS011;36654;45.042;38.994;2023-06-10T09:12:33;19.00;;;6.60;;
50683;SDS011;36654;45.042;38.994;2023-06-10T09:15:00;14.80;;;5.88;;
50683;SDS011;36654;45.042;38.994;2023-06-10T09:17:26;15.90;;;7.57;;
50683;SDS011;36654;45.042;38.994;2023-06-10T09:19:52;17.98;;;7.30;;
50683;SDS011;36654;45.042;38.994;2023-06-10T09:22:21;17.17;;;6.55;;
50683;SDS011;36654;45.042;38.994;2023-06-10T09:24:47;15.23;;;6.63;;
50683;SDS011;36654;45.042;38.994;2023-06-10T09:27:13;18.48;;;7.53;;
50683;SDS011;36654;45.042;38.994;2023-06-10T09:29:56;11.85;;;6.72;;
50683;SDS011;36654;45.042;38.994;2023-06-10T09:32:23;16.05;;;5.82;;
50683;SDS011;36654;45.042;38.994;2023-06-10T09:34:49;17.52;;;6.47;;
50683;SDS011;36654;45.042;38.994;2023-06-10T09:37:25;17.10;;;7.70;;
50683;SDS011;36654;45.042;38.994;2023-06-10T09:40:01;14.43;;;7.22;;
50683;SDS011;36654;45.042;38.994;2023-06-10T09:42:34;18.67;;;7.43;;
50683;SDS011;36654;45.042;38.994;2023-06-10T09:45:04;17.05;;;7.28;;
50683;SDS011;36654;45.042;38.994;2023-06-10T09:47:32;23.48;;;7.03;;
50683;SDS011;36654;45.042;38.994;2023-06-10T09:49:58;17.77;;;6.40;;
50683;SDS011;36654;45.042;38.994;2023-06-10T09:52:24;15.38;;;6.68;;
50683;SDS011;36654;45.042;38.994;2023-06-10T09:54:51;15.15;;;6.75;;
50683;SDS011;36654;45.042;38.994;2023-06-10T09:57:18;16.17;;;6.60;;
50683;SDS011;36654;45.042;38.994;2023-06-10T09:59:45;19.95;;;7.70;;
50683;SDS011;36654;45.042;38.994;2023-06-10T10:02:17;22.55;;;8.30;;
50683;SDS011;36654;45.042;38.994;2023-06-10T10:04:43;16.85;;;8.07;;
50683;SDS011;36654;45.042;38.994;2023-06-10T10:07:09;15.27;;;6.55;;
50683;SDS011;36654;45.042;38.994;2023-06-10T10:09:36;12.13;;;7.38;;
50683;SDS011;36654;45.042;38.994;2023-06-10T10:12:04;15.32;;;6.85;;
50683;SDS011;36654;45.042;38.994;2023-06-10T10:14:35;13.55;;;6.85;;
50683;SDS011;36654;45.042;38.994;2023-06-10T10:17:04;17.02;;;6.82;;
50683;SDS011;36654;45.042;38.994;2023-06-10T10:19:32;18.50;;;6.80;;
50683;SDS011;36654;45.042;38.994;2023-06-10T10:22:06;17.02;;;7.57;;
50683;SDS011;36654;45.042;38.994;2023-06-10T10:24:36;22.30;;;7.28;;
50683;SDS011;36654;45.042;38.994;2023-06-10T10:27:11;15.00;;;7.10;;
50683;SDS011;36654;45.042;38.994;2023-06-10T10:29:42;19.05;;;7.20;;
50683;SDS011;36654;45.042;38.994;2023-06-10T10:32:12;14.23;;;6.53;;
50683;SDS011;36654;45.042;38.994;2023-06-10T10:37:34;17.10;;;7.50;;
50683;SDS011;36654;45.042;38.994;2023-06-10T10:40:01;16.20;;;6.55;;
50683;SDS011;36654;45.042;38.994;2023-06-10T10:42:28;15.30;;;7.15;;
50683;SDS011;36654;45.042;38.994;2023-06-10T10:44:55;16.00;;;7.07;;
50683;SDS011;36654;45.042;38.994;2023-06-10T10:47:21;12.05;;;6.32;;
50683;SDS011;36654;45.042;38.994;2023-06-10T10:49:48;18.85;;;6.90;;
50683;SDS011;36654;45.042;38.994;2023-06-10T10:52:18;15.75;;;6.82;;
50683;SDS011;36654;45.042;38.994;2023-06-10T10:54:45;19.40;;;7.20;;
50683;SDS011;36654;45.042;38.994;2023-06-10T10:57:21;12.50;;;7.85;;
50683;SDS011;36654;45.042;38.994;2023-06-10T11:04:46;15.90;;;6.63;;
50683;SDS011;36654;45.042;38.994;2023-06-10T11:07:13;18.15;;;7.30;;
50683;SDS011;36654;45.042;38.994;2023-06-10T11:15:12;16.08;;;6.90;;
50683;SDS011;36654;45.042;38.994;2023-06-10T11:18:06;15.73;;;6.78;;
50683;SDS011;36654;45.042;38.994;2023-06-10T11:20:58;19.33;;;6.85;;
50683;SDS011;36654;45.042;38.994;2023-06-10T11:31:18;14.93;;;6.45;;
50683;SDS011;36654;45.042;38.994;2023-06-10T11:33:48;15.63;;;6.25;;
50683;SDS011;36654;45.042;38.994;2023-06-10T11:36:21;15.05;;;6.18;;
50683;SDS011;36654;45.042;38.994;2023-06-10T11:38:48;14.27;;;6.38;;
50683;SDS011;36654;45.042;38.994;2023-06-10T11:41:14;10.95;;;5.95;;
50683;SDS011;36654;45.042;38.994;2023-06-10T11:43:42;10.65;;;6.47;;
50683;SDS011;36654;45.042;38.994;2023-06-10T11:46:10;12.35;;;6.07;;
50683;SDS011;36654;45.042;38.994;2023-06-10T11:48:36;11.68;;;6.97;;
50683;SDS011;36654;45.042;38.994;2023-06-10T11:51:05;15.00;;;6.45;;
50683;SDS011;36654;45.042;38.994;2023-06-10T11:53:32;13.90;;;6.47;;
50683;SDS011;36654;45.042;38.994;2023-06-10T11:55:58;18.48;;;5.80;;
50683;SDS011;36654;45.042;38.994;2023-06-10T11:58:23;15.02;;;5.38;;
50683;SDS011;36654;45.042;38.994;2023-06-10T12:00:49;14.10;;;5.70;;
50683;SDS011;36654;45.042;38.994;2023-06-10T12:03:20;10.57;;;5.68;;
50683;SDS011;36654;45.042;38.994;2023-06-10T12:06:06;11.07;;;5.80;;
50683;SDS011;36654;45.042;38.994;2023-06-10T12:08:32;13.15;;;5.38;;
50683;SDS011;36654;45.042;38.994;2023-06-10T12:10:58;13.82;;;5.65;;
50683;SDS011;36654;45.042;38.994;2023-06-10T12:13:27;14.77;;;5.10;;
50683;SDS011;36654;45.042;38.994;2023-06-10T12:15:54;10.18;;;5.22;;
50683;SDS011;36654;45.042;38.994;2023-06-10T12:18:21;10.98;;;5.10;;
50683;SDS011;36654;45.042;38.994;2023-06-10T12:20:48;12.48;;;5.32;;
50683;SDS011;36654;45.042;38.994;2023-06-10T12:23:17;9.10;;;5.10;;
50683;SDS011;36654;45.042;38.994;2023-06-10T12:25:53;8.95;;;4.93;;
50683;SDS011;36654;45.042;38.994;2023-06-10T12:28:24;12.93;;;5.45;;
50683;SDS011;36654;45.042;38.994;2023-06-10T12:30:51;12.13;;;5.32;;
50683;SDS011;36654;45.042;38.994;2023-06-10T12:33:30;12.20;;;5.15;;
50683;SDS011;36654;45.042;38.994;2023-06-10T12:35:56;12.75;;;5.18;;
50683;SDS011;36654;45.042;38.994;2023-06-10T12:38:22;11.18;;;5.38;;
50683;SDS011;36654;45.042;38.994;2023-06-10T12:40:49;13.82;;;5.40;;
50683;SDS011;36654;45.042;38.994;2023-06-10T12:43:25;11.23;;;4.78;;
50683;SDS011;36654;45.042;38.994;2023-06-10T12:45:51;9.88;;;4.90;;
50683;SDS011;36654;45.042;38.994;2023-06-10T12:48:23;12.80;;;5.38;;
50683;SDS011;36654;45.042;38.994;2023-06-10T12:53:21;12.70;;;5.05;;
50683;SDS011;36654;45.042;38.994;2023-06-10T12:55:48;8.52;;;5.18;;
50683;SDS011;36654;45.042;38.994;2023-06-10T12:58:14;7.45;;;4.63;;
50683;SDS011;36654;45.042;38.994;2023-06-10T13:00:40;13.57;;;4.97;;
50683;SDS011;36654;45.042;38.994;2023-06-10T13:03:07;11.52;;;5.05;;
50683;SDS011;36654;45.042;38.994;2023-06-10T13:05:35;15.55;;;5.15;;
50683;SDS011;36654;45.042;38.994;2023-06-10T13:08:03;9.82;;;6.15;;
50683;SDS011;36654;45.042;38.994;2023-06-10T13:10:35;12.15;;;6.03;;
50683;SDS011;36654;45.042;38.994;2023-06-10T13:13:01;6.82;;;5.18;;
50683;SDS011;36654;45.042;38.994;2023-06-10T13:15:30;10.90;;;5.05;;
50683;SDS011;36654;45.042;38.994;2023-06-10T13:17:55;28.33;;;6.75;;
50683;SDS011;36654;45.042;38.994;2023-06-10T13:20:21;28.95;;;6.50;;
50683;SDS011;36654;45.042;38.994;2023-06-10T13:22:47;17.08;;;5.90;;
50683;SDS011;36654;45.042;38.994;2023-06-10T13:25:14;15.23;;;5.82;;
50683;SDS011;36654;45.042;38.994;2023-06-10T13:27:40;16.05;;;5.13;;
50683;SDS011;36654;45.042;38.994;2023-06-10T13:30:07;22.60;;;6.35;;
50683;SDS011;36654;45.042;38.994;2023-06-10T13:32:34;22.02;;;6.78;;
50683;SDS011;36654;45.042;38.994;2023-06-10T13:35:00;18.45;;;7.53;;
50683;SDS011;36654;45.042;38.994;2023-06-10T13:37:26;20.40;;;8.52;;
50683;SDS011;36654;45.042;38.994;2023-06-10T13:39:52;18.98;;;10.40;;
50683;SDS011;36654;45.042;38.994;2023-06-10T13:42:18;16.27;;;9.57;;
50683;SDS011;36654;45.042;38.994;2023-06-10T13:44:44;18.98;;;9.70;;
50683;SDS011;36654;45.042;38.994;2023-06-10T13:47:09;19.45;;;10.98;;
50683;SDS011;36654;45.042;38.994;2023-06-10T13:49:35;17.73;;;11.82;;
50683;SDS011;36654;45.042;38.994;2023-06-10T13:52:02;21.85;;;12.25;;
50683;SDS011;36654;45.042;38.994;2023-06-10T13:54:28;18.10;;;10.50;;
50683;SDS011;36654;45.042;38.994;2023-06-10T13:56:53;21.27;;;10.68;;
50683;SDS011;36654;45.042;38.994;2023-06-10T13:59:19;20.13;;;10.70;;
50683;SDS011;36654;45.042;38.994;2023-06-10T14:01:46;20.60;;;11.95;;
50683;SDS011;36654;45.042;38.994;2023-06-10T14:04:12;20.30;;;13.32;;
50683;SDS011;36654;45.042;38.994;2023-06-10T14:06:38;17.50;;;12.25;;
50683;SDS011;36654;45.042;38.994;2023-06-10T14:09:04;20.48;;;11.32;;
50683;SDS011;36654;45.042;38.994;2023-06-10T14:11:30;17.75;;;10.52;;
50683;SDS011;36654;45.042;38.994;2023-06-10T14:13:56;17.15;;;10.15;;
50683;SDS011;36654;45.042;38.994;2023-06-10T14:16:23;15.45;;;9.65;;
50683;SDS011;36654;45.042;38.994;2023-06-10T14:18:49;14.63;;;6.57;;
50683;SDS011;36654;45.042;38.994;2023-06-10T14:21:18;13.80;;;7.43;;
50683;SDS011;36654;45.042;38.994;2023-06-10T14:23:44;13.32;;;7.72;;
50683;SDS011;36654;45.042;38.994;2023-06-10T14:26:11;19.08;;;9.63;;
50683;SDS011;36654;45.042;38.994;2023-06-10T14:28:37;13.18;;;8.85;;
50683;SDS011;36654;45.042;38.994;2023-06-10T14:31:02;20.30;;;9.27;;
50683;SDS011;36654;45.042;38.994;2023-06-10T14:33:28;17.83;;;12.40;;
50683;SDS011;36654;45.042;38.994;2023-06-10T14:35:56;16.30;;;10.45;;
50683;SDS011;36654;45.042;38.994;2023-06-10T14:38:21;19.95;;;11.70;;
50683;SDS011;36654;45.042;38.994;2023-06-10T14:40:47;15.02;;;9.95;;
50683;SDS011;36654;45.042;38.994;2023-06-10T14:43:13;14.55;;;9.15;;
50683;SDS011;36654;45.042;38.994;2023-06-10T14:45:39;18.80;;;10.55;;
50683;SDS011;36654;45.042;38.994;2023-06-10T14:48:05;19.38;;;10.68;;